Time;durP1;ratioP1;P1;durP2;ratioP2;P2;SDS_P1;SDS_P2;PMS_P1;PMS_P2;Temp;Humidity;BMP_temperature;BMP_pressure;BME280_temperature;BME280_humidity;BME280_pressure;Samples;Min_cycle;Max_cycle;Signal;HPM_P1;HPM_P2
2022/03/16 00:00:21;;;;;;;90.57;50.10;;;;;;;;;;6224172;23;20077;-93
2022/03/16 00:02:47;;;;;;;86.10;51.15;;;;;;;;;;6224116;23;20004;-91
2022/03/16 00:05:14;;;;;;;87.55;51.10;;;;;;;;;;6223774;23;20008;-92
2022/03/16 00:07:39;;;;;;;87.40;50.22;;;;;;;;;;6223979;23;20008;-93
2022/03/16 00:10:07;;;;;;;87.53;49.85;;;;;;;;;;6223785;23;20014;-92
2022/03/16 00:12:33;;;;;;;91.10;52.13;;;;;;;;;;6223903;23;20000;-93
2022/03/16 00:14:59;;;;;;;90.35;51.78;;;;;;;;;;6224204;23;20086;-92
2022/03/16 00:17:25;;;;;;;86.53;49.20;;;;;;;;;;6224369;23;20004;-92
2022/03/16 00:19:50;;;;;;;93.72;52.53;;;;;;;;;;6223895;23;20030;-92
2022/03/16 00:22:15;;;;;;;87.30;50.83;;;;;;;;;;6224179;23;20008;-96
2022/03/16 10:29:42;;;;;;;87.72;54.50;;;;;;;;;;6142704;23;20353;-89
2022/03/16 10:32:07;;;;;;;83.88;51.10;;;;;;;;;;6190613;23;20012;-88
2022/03/16 10:34:33;;;;;;;87.00;53.42;;;;;;;;;;6217297;23;20011;-88
2022/03/16 10:36:59;;;;;;;86.65;52.08;;;;;;;;;;6190877;23;20022;-88
2022/03/16 10:39:37;;;;;;;86.63;53.80;;;;;;;;;;6190580;23;20061;-87
2022/03/16 10:47:49;;;;;;;90.57;55.40;;;;;;;;;;6216786;23;20016;-88
2022/03/16 10:50:15;;;;;;;80.63;52.70;;;;;;;;;;6190204;23;20005;-88
2022/03/16 10:52:41;;;;;;;89.35;57.20;;;;;;;;;;6190263;23;20012;-88
2022/03/16 10:55:08;;;;;;;87.85;55.10;;;;;;;;;;6216711;23;20481;-89
2022/03/16 10:57:34;;;;;;;92.30;56.30;;;;;;;;;;6215258;23;20449;-87
2022/03/16 11:00:02;;;;;;;92.00;53.88;;;;;;;;;;6190514;23;20005;-88
2022/03/16 11:02:33;;;;;;;88.50;54.78;;;;;;;;;;6190207;23;20000;-88
2022/03/16 11:04:58;;;;;;;89.95;55.80;;;;;;;;;;6190105;23;20454;-87
2022/03/16 11:07:25;;;;;;;87.32;54.55;;;;;;;;;;6190681;23;20005;-87
2022/03/16 11:09:51;;;;;;;90.20;55.40;;;;;;;;;;6217151;23;20371;-90
2022/03/16 11:15:05;;;;;;;90.40;54.55;;;;;;;;;;6216672;23;20434;-88
2022/03/16 11:17:31;;;;;;;98.88;59.10;;;;;;;;;;6190116;23;20083;-87
2022/03/16 11:20:00;;;;;;;89.53;56.40;;;;;;;;;;6216668;23;20004;-89
2022/03/16 11:22:26;;;;;;;95.80;58.27;;;;;;;;;;6216681;23;20165;-87
2022/03/16 11:25:15;;;;;;;94.45;56.10;;;;;;;;;;6190201;23;20445;-88
2022/03/16 11:27:49;;;;;;;97.30;58.38;;;;;;;;;;6190283;23;20004;-89
2022/03/16 11:30:26;;;;;;;101.57;58.72;;;;;;;;;;6216274;23;20142;-87
2022/03/16 11:32:57;;;;;;;95.93;58.05;;;;;;;;;;6189654;23;20416;-87
2022/03/16 11:35:30;;;;;;;95.53;57.15;;;;;;;;;;6216127;23;20001;-86
2022/03/16 11:38:00;;;;;;;93.78;58.67;;;;;;;;;;6189525;23;20008;-86
2022/03/16 11:40:26;;;;;;;98.05;59.05;;;;;;;;;;6215967;23;20000;-86
2022/03/16 11:43:04;;;;;;;101.32;63.08;;;;;;;;;;6189661;23;20051;-86
2022/03/16 11:45:38;;;;;;;96.78;61.05;;;;;;;;;;6189478;23;20054;-87
2022/03/16 11:51:08;;;;;;;103.68;59.33;;;;;;;;;;6216221;23;20044;-87
2022/03/16 11:53:46;;;;;;;98.57;58.47;;;;;;;;;;6189689;23;20009;-89
2022/03/16 11:56:36;;;;;;;90.18;55.15;;;;;;;;;;6189844;23;20088;-87
2022/03/16 11:59:17;;;;;;;86.53;53.28;;;;;;;;;;6190045;23;20012;-90
2022/03/16 12:01:52;;;;;;;88.57;53.65;;;;;;;;;;6190216;23;20035;-90
2022/03/16 12:04:32;;;;;;;88.07;56.42;;;;;;;;;;6190161;23;20005;-89
2022/03/16 12:07:02;;;;;;;90.35;57.92;;;;;;;;;;6189952;23;20012;-89
2022/03/16 12:09:47;;;;;;;85.15;57.25;;;;;;;;;;6189884;23;20074;-90
2022/03/16 12:15:11;;;;;;;88.60;57.33;;;;;;;;;;6216915;23;20099;-90
2022/03/16 12:17:52;;;;;;;87.35;57.28;;;;;;;;;;6190268;23;20012;-89
2022/03/16 12:20:21;;;;;;;90.78;58.10;;;;;;;;;;6190104;23;20009;-89
2022/03/16 12:22:49;;;;;;;88.53;59.28;;;;;;;;;;6190223;23;20019;-89
2022/03/16 12:25:26;;;;;;;91.43;58.25;;;;;;;;;;6216874;23;20331;-89
2022/03/16 12:31:02;;;;;;;85.95;56.78;;;;;;;;;;6216698;23;20019;-89
2022/03/16 12:33:31;;;;;;;87.95;56.33;;;;;;;;;;6190014;23;20012;-91
2022/03/16 12:36:13;;;;;;;86.47;58.10;;;;;;;;;;6190453;23;20374;-91
2022/03/16 12:38:47;;;;;;;87.03;55.83;;;;;;;;;;6216994;23;20005;-90
2022/03/16 12:44:02;;;;;;;88.95;58.30;;;;;;;;;;6217188;23;20015;-91
2022/03/16 12:46:34;;;;;;;92.35;60.30;;;;;;;;;;6190366;23;20446;-90
2022/03/16 18:14:24;;;;;;;63.77;41.63;;;;;;;;;;6195758;23;20028;-96
2022/03/16 18:16:51;;;;;;;67.22;40.65;;;;;;;;;;6252560;23;20297;-94
2022/03/16 18:19:17;;;;;;;55.25;36.58;;;;;;;;;;6228117;23;20008;-95
2022/03/16 18:22:23;;;;;;;64.15;39.45;;;;;;;;;;6226587;23;20004;-96
2022/03/16 18:24:32;;;;;;;68.40;43.92;;;;;;;;;;6256179;23;20032;-95
2022/03/16 18:26:57;;;;;;;69.90;42.88;;;;;;;;;;6229364;23;20073;-96
2022/03/16 18:29:24;;;;;;;67.72;39.53;;;;;;;;;;6233429;22;20020;-96
2022/03/16 18:37:00;;;;;;;64.20;41.15;;;;;;;;;;6238807;22;20025;-96
2022/03/16 18:39:37;;;;;;;62.63;40.92;;;;;;;;;;6202305;23;20076;-96
2022/03/16 18:42:05;;;;;;;62.00;38.97;;;;;;;;;;6195906;23;20077;-94
2022/03/16 18:44:35;;;;;;;60.85;38.22;;;;;;;;;;6248474;22;20016;-96
2022/03/16 18:47:02;;;;;;;55.60;34.30;;;;;;;;;;6263793;22;20426;-94
2022/03/16 18:49:28;;;;;;;54.80;33.42;;;;;;;;;;6256388;22;20014;-96
2022/03/16 18:54:39;;;;;;;69.07;42.00;;;;;;;;;;6289437;22;20007;-96
2022/03/16 18:57:07;;;;;;;66.25;41.80;;;;;;;;;;6281044;22;20007;-96
2022/03/16 18:59:32;;;;;;;67.65;39.95;;;;;;;;;;6278840;22;20003;-96
2022/03/16 19:02:41;;;;;;;69.47;42.50;;;;;;;;;;6279783;22;20050;-96
2022/03/16 19:05:41;;;;;;;63.38;40.15;;;;;;;;;;6283658;22;19987;-95
2022/03/16 19:08:28;;;;;;;63.97;39.45;;;;;;;;;;6244731;22;20448;-96
2022/03/16 19:23:24;;;;;;;54.75;33.45;;;;;;;;;;6244779;22;20030;-96
2022/03/16 19:25:58;;;;;;;56.90;34.80;;;;;;;;;;6232727;23;20016;-96
2022/03/16 19:28:40;;;;;;;;;;;;;;;;;;;;;
2022/03/16 19:31:07;;;;;;;60.72;36.45;;;;;;;;;;6260458;23;20035;-94
2022/03/16 19:33:36;;;;;;;59.97;37.05;;;;;;;;;;6251274;23;20004;-96
2022/03/16 19:36:04;;;;;;;59.20;35.87;;;;;;;;;;6251024;23;20008;-96
2022/03/16 19:38:45;;;;;;;60.65;35.10;;;;;;;;;;6251580;23;20008;-96
2022/03/16 19:41:11;;;;;;;57.53;34.35;;;;;;;;;;6250239;23;20028;-96
2022/03/16 19:44:01;;;;;;;58.78;36.28;;;;;;;;;;6251428;23;20312;-96
2022/03/16 19:46:26;;;;;;;97.50;60.10;;;;;;;;;;6250752;22;20008;-96
2022/03/16 19:48:51;;;;;;;74.65;45.13;;;;;;;;;;6248599;23;20320;-96
2022/03/16 19:51:17;;;;;;;60.67;38.67;;;;;;;;;;6247753;23;20011;-96
2022/03/16 19:53:47;;;;;;;123.20;69.28;;;;;;;;;;6248284;23;20077;-96
2022/03/16 19:56:12;;;;;;;80.50;49.00;;;;;;;;;;6248259;23;20008;-95
2022/03/16 19:58:39;;;;;;;114.68;66.95;;;;;;;;;;6247948;23;20412;-96
2022/03/16 20:01:05;;;;;;;75.38;41.35;;;;;;;;;;6247917;23;20024;-95
2022/03/16 20:03:33;;;;;;;71.00;43.75;;;;;;;;;;6247492;23;20390;-96
2022/03/16 20:05:59;;;;;;;71.15;42.58;;;;;;;;;;6247340;23;20061;-96
2022/03/16 20:08:26;;;;;;;66.00;39.78;;;;;;;;;;6249401;23;20004;-96
2022/03/16 20:10:51;;;;;;;65.47;40.55;;;;;;;;;;6248308;23;20016;-96
2022/03/16 20:13:18;;;;;;;78.78;47.60;;;;;;;;;;6248825;23;20481;-94
2022/03/16 20:15:45;;;;;;;72.13;43.83;;;;;;;;;;6250958;23;20035;-96
2022/03/16 20:18:11;;;;;;;70.88;41.45;;;;;;;;;;6251265;23;20028;-96
2022/03/16 20:20:39;;;;;;;70.85;42.05;;;;;;;;;;6249688;23;20027;-96
2022/03/16 20:23:05;;;;;;;73.25;43.13;;;;;;;;;;6249718;23;20047;-95
2022/03/16 20:25:32;;;;;;;60.72;39.28;;;;;;;;;;6250616;23;20058;-94
2022/03/16 20:27:57;;;;;;;65.38;39.67;;;;;;;;;;6249413;23;20004;-95
2022/03/16 20:30:23;;;;;;;63.20;37.53;;;;;;;;;;6249066;23;20038;-94
2022/03/16 20:32:51;;;;;;;68.63;39.42;;;;;;;;;;6247704;23;20016;-94
2022/03/16 20:35:18;;;;;;;59.38;37.63;;;;;;;;;;6229957;23;20035;-96
2022/03/16 20:37:52;;;;;;;62.70;37.20;;;;;;;;;;6266189;23;20004;-96
2022/03/16 21:09:00;;;;;;;62.70;35.97;;;;;;;;;;6229999;23;20024;-96
2022/03/16 21:11:36;;;;;;;61.72;37.60;;;;;;;;;;6260582;23;20004;-96
2022/03/16 21:15:00;;;;;;;59.05;35.13;;;;;;;;;;6258483;23;19992;-96
2022/03/16 21:18:19;;;;;;;59.08;35.80;;;;;;;;;;6220946;22;20031;-96
2022/03/16 21:21:38;;;;;;;64.68;38.58;;;;;;;;;;6237067;23;20039;-96
2022/03/16 21:24:56;;;;;;;;;;;;;;;;;;;;;
2022/03/16 21:36:14;;;;;;;64.88;36.30;;;;;;;;;;6143766;23;20051;-96
2022/03/16 21:39:02;;;;;;;68.65;38.20;;;;;;;;;;6185056;23;20016;-96
2022/03/16 21:44:40;;;;;;;;;;;;;;;;;;6192170;23;20012;-96
2022/03/16 21:47:20;;;;;;;68.80;38.15;;;;;;;;;;6168119;23;19957;-96
2022/03/16 21:50:01;;;;;;;;;;;;;;;;;;6216378;22;20023;-96
2022/03/16 21:52:51;;;;;;;66.07;37.53;;;;;;;;;;6294938;22;19895;-96
2022/03/16 21:55:41;;;;;;;64.70;36.35;;;;;;;;;;6263521;22;20008;-96
2022/03/16 21:58:46;;;;;;;;;;;;;;;;;;;;;
2022/03/16 22:01:27;;;;;;;63.85;38.65;;;;;;;;;;6258332;22;20241;-96
2022/03/16 22:04:11;;;;;;;67.45;39.00;;;;;;;;;;6302528;22;20007;-96
2022/03/16 22:07:23;;;;;;;68.15;39.53;;;;;;;;;;6273025;22;19987;-96
2022/03/16 22:10:20;;;;;;;71.25;38.67;;;;;;;;;;6271033;22;20023;-96
2022/03/16 22:13:39;;;;;;;63.88;37.22;;;;;;;;;;6272181;22;20004;-96
2022/03/16 22:16:23;;;;;;;60.55;37.00;;;;;;;;;;6271534;22;20003;-96
2022/03/16 22:19:22;;;;;;;65.95;38.03;;;;;;;;;;6273011;22;20004;-96
2022/03/16 22:22:13;;;;;;;63.50;37.17;;;;;;;;;;6270796;22;20004;-96
2022/03/16 22:27:32;;;;;;;66.40;37.90;;;;;;;;;;6274224;22;20010;-96
2022/03/16 22:30:01;;;;;;;63.45;37.58;;;;;;;;;;6259819;22;20015;-96
2022/03/16 22:32:30;;;;;;;60.97;36.65;;;;;;;;;;6260658;22;20007;-96
2022/03/16 22:34:55;;;;;;;65.90;37.65;;;;;;;;;;6231407;23;20001;-96
2022/03/16 22:37:23;;;;;;;68.07;37.97;;;;;;;;;;6230334;23;20004;-96
2022/03/16 22:39:49;;;;;;;65.93;39.10;;;;;;;;;;6230202;23;20000;-96
2022/03/16 22:42:15;;;;;;;68.50;38.88;;;;;;;;;;6231397;23;20004;-96
2022/03/16 22:44:48;;;;;;;68.15;38.88;;;;;;;;;;6238077;23;20004;-96
2022/03/16 22:47:13;;;;;;;67.90;38.72;;;;;;;;;;6236045;23;20097;-96
2022/03/16 22:49:48;;;;;;;66.07;39.85;;;;;;;;;;6237823;23;20427;-96
2022/03/16 22:52:16;;;;;;;70.75;41.38;;;;;;;;;;6269023;22;20438;-96
2022/03/16 22:54:42;;;;;;;67.85;39.92;;;;;;;;;;6235627;23;20008;-95
